Perryville, AR (72126)

10:42 PM CDT on July 27, 2017 (GMT -0500)
Wye Mountain Arkansas, USA | | Change Station

Elev 722 ft 34.94 °N, 92.65 °W | Updated 1 minute ago

Mostly Cloudy
Mostly Cloudy
84.9 °F
Feels Like 95 °F
N
8.0
Wind Variable Wind from SSW
Gusts 8.0 mph

Today
High -- | Low -- °F
--% Chance of Precip.
Yesterday
High -- | Low -- °F
Precip. -- in
Pressure 29.85 in
Visibility 10.0 miles
Clouds Mostly Cloudy 4900 ft
Mostly Cloudy 6000 ft
Overcast 10000 ft
Heat Index 95 °F
Dew Point 77 °F
Humidity 77%
Rainfall 0.70 in
Snow Depth Not available.
6:17 AM 8:17 PM
Waxing Crescent, 26% visible
METAR KRUE 280253Z AUTO 08005KT 10SM -TSRA BKN049 BKN060 OVC100 28/24 A2987 RMK AO2 LTG DSNT SW-NW RAB45 TSB52 SLP107 P0000 60000 T02830244 53007
Pressure 29.85 in
Visibility 10.0 miles
Clouds Mostly Cloudy 4900 ft
Mostly Cloudy 6000 ft
Overcast 10000 ft
Heat Index 95 °F
Dew Point 77 °F
Humidity 77%
Rainfall 0.70 in
Snow Depth Not available.
6:17 AM 8:17 PM
Waxing Crescent, 26% visible
METAR KRUE 280253Z AUTO 08005KT 10SM -TSRA BKN049 BKN060 OVC100 28/24 A2987 RMK AO2 LTG DSNT SW-NW RAB45 TSB52 SLP107 P0000 60000 T02830244 53007

Get Severe Weather Alerts

Thanks for signing up!

Be on the lookout for a verification email in your inbox.

You'll start receiving the daily forecast at 6 AM.

×

10-Day Weather Forecast

Almanac

Astronomy

Jul. 27, 2017 Rise Set
Actual Time
Civil Twilight
Nautical Twilight
Astronomical Twilight
Moon
Length of Visible Light
Length of Day
Tomorrow will be .
, % of the Moon is Illuminated

Today's Extremes

State Highs State Lows

Community

WunderPhotos

Category 6

Welcome to Category 6. This is the collective home for Weather Underground's featured writeups by Dr. Jeff Masters (right), Bob Henson (left), Chris Burt, and other regular contributors.

Nearby

Air Quality

  Air Quality AQ Index Pollutant
Not available.

Snow Depth

Station Depth Elevation

Earthquake Activity

City Distance Mag. Time & Date
Minimum magnitude displayed is 2.5.

Coastal Water Temperatures

Place Temperature

Stations

Nearby Weather Stations

Station Location Temp. Windchill Dew Point Humidity Wind Precip. Elev Updated Type
                   

Watches & Warnings

There are currently no watches in effect.